Time;durP1;ratioP1;P1;durP2;ratioP2;P2;SDS_P1;SDS_P2;PMS_P1;PMS_P2;Temp;Humidity;BMP_temperature;BMP_pressure;BME280_temperature;BME280_humidity;BME280_pressure;Samples;Min_cycle;Max_cycle;Signal;HPM_P1;HPM_P2
2022/12/12 00:01:24;;;;;;;27.00;16.65;;;0.40;87.30;;;;;;5032309;28;20053;-14
2022/12/12 00:03:51;;;;;;;26.05;15.65;;;0.40;87.40;;;;;;5032975;28;20125;-14
2022/12/12 00:06:17;;;;;;;29.67;17.70;;;0.40;87.40;;;;;;5032909;28;20017;-15
2022/12/12 00:08:43;;;;;;;27.88;15.75;;;0.40;87.40;;;;;;5032790;28;20026;-15
2022/12/12 00:11:09;;;;;;;26.80;15.88;;;0.40;87.40;;;;;;5032505;28;20036;-14
2022/12/12 00:13:36;;;;;;;28.45;14.48;;;0.40;87.40;;;;;;5032794;28;20022;-14
2022/12/12 00:16:07;;;;;;;31.75;15.23;;;0.40;87.40;;;;;;5032908;28;20025;-15
2022/12/12 00:18:35;;;;;;;23.23;14.75;;;0.40;87.40;;;;;;5032799;28;20041;-15
2022/12/12 00:21:03;;;;;;;26.25;14.80;;;0.40;87.40;;;;;;5032388;28;20041;-15
2022/12/12 00:23:29;;;;;;;29.50;16.75;;;0.40;87.40;;;;;;5032448;28;20030;-14
2022/12/12 00:25:59;;;;;;;31.17;15.95;;;0.40;87.40;;;;;;5032524;28;20104;-15
2022/12/12 00:28:25;;;;;;;28.50;15.90;;;0.40;87.30;;;;;;5031962;28;20018;-15
2022/12/12 00:30:51;;;;;;;28.00;16.42;;;0.40;87.30;;;;;;5032890;28;20021;-14
2022/12/12 00:33:18;;;;;;;25.95;14.77;;;0.40;87.30;;;;;;5032792;28;20024;-14
2022/12/12 00:35:44;;;;;;;28.38;15.93;;;0.40;87.30;;;;;;5035937;28;20046;-14
2022/12/12 00:38:10;;;;;;;24.45;15.45;;;0.40;87.30;;;;;;5036411;28;20036;-14
2022/12/12 00:40:36;;;;;;;33.10;16.92;;;0.40;87.20;;;;;;5036485;28;20026;-15
2022/12/12 00:43:02;;;;;;;32.78;16.50;;;0.30;87.20;;;;;;5036196;28;20029;-15
2022/12/12 00:45:28;;;;;;;24.38;14.90;;;0.30;87.10;;;;;;5035113;28;20428;-14
2022/12/12 00:47:54;;;;;;;26.63;15.23;;;0.30;87.10;;;;;;5036462;28;20083;-13
2022/12/12 00:50:20;;;;;;;23.33;14.18;;;0.20;87.00;;;;;;5036729;28;20489;-14
2022/12/12 00:52:46;;;;;;;22.23;12.15;;;0.10;87.10;;;;;;5035941;28;20033;-16
2022/12/12 00:55:13;;;;;;;24.75;13.52;;;0.10;87.20;;;;;;5034946;28;20033;-13
2022/12/12 00:57:39;;;;;;;25.75;14.55;;;0.10;87.20;;;;;;5036162;28;20029;-14
2022/12/12 01:00:08;;;;;;;23.08;12.45;;;0.10;87.20;;;;;;5036072;28;20040;-14
2022/12/12 01:02:34;;;;;;;26.33;14.00;;;0.00;87.20;;;;;;5035766;28;20067;-13
2022/12/12 01:05:01;;;;;;;22.95;11.65;;;0.00;87.20;;;;;;5036161;28;20052;-15
2022/12/12 01:07:27;;;;;;;22.27;12.55;;;0.00;87.20;;;;;;5036005;28;20445;-14
2022/12/12 01:09:53;;;;;;;21.85;12.30;;;0.00;87.30;;;;;;5036003;28;20014;-14
2022/12/12 01:12:19;;;;;;;19.70;11.13;;;0.00;87.20;;;;;;5036295;28;20022;-13
2022/12/12 01:14:45;;;;;;;17.83;9.98;;;0.00;87.20;;;;;;5035842;28;20490;-15
2022/12/12 01:17:11;;;;;;;15.40;9.35;;;-0.10;87.20;;;;;;5035502;28;20477;-15
2022/12/12 01:19:37;;;;;;;16.40;9.30;;;-0.10;87.30;;;;;;5035725;28;20029;-15
2022/12/12 01:22:03;;;;;;;22.42;12.50;;;-0.10;87.40;;;;;;5036029;28;20037;-14
2022/12/12 01:24:29;;;;;;;21.55;12.63;;;-0.10;87.50;;;;;;5035646;28;20110;-13
2022/12/12 01:26:55;;;;;;;22.50;13.43;;;-0.10;87.50;;;;;;5035337;28;20022;-13
2022/12/12 01:29:21;;;;;;;24.67;13.43;;;-0.10;87.50;;;;;;5035829;28;20041;-14
2022/12/12 01:31:47;;;;;;;21.90;12.98;;;-0.10;87.60;;;;;;5035975;28;20026;-14
2022/12/12 01:34:13;;;;;;;20.77;12.38;;;-0.10;87.60;;;;;;5035404;28;20031;-14
2022/12/12 01:36:39;;;;;;;22.75;12.75;;;-0.20;87.50;;;;;;5035343;28;20026;-14
2022/12/12 01:39:05;;;;;;;21.08;11.25;;;-0.20;87.40;;;;;;5035649;28;20025;-13
2022/12/12 01:41:31;;;;;;;25.38;12.80;;;-0.30;87.30;;;;;;5035601;28;20029;-14
2022/12/12 01:44:01;;;;;;;22.08;12.45;;;-0.40;87.30;;;;;;5033862;28;20355;-15
2022/12/12 01:46:36;;;;;;;22.42;13.02;;;-0.40;87.30;;;;;;5034684;28;20111;-14
2022/12/12 01:49:23;;;;;;;21.55;11.07;;;-0.50;87.30;;;;;;5035018;28;20029;-14
2022/12/12 01:51:55;;;;;;;23.77;13.02;;;-0.50;87.50;;;;;;5035507;28;20108;-15
2022/12/12 01:54:26;;;;;;;22.90;11.98;;;-0.60;87.60;;;;;;5035273;28;20061;-13
2022/12/12 01:56:55;;;;;;;23.38;13.73;;;-0.50;87.70;;;;;;5035033;28;20028;-13
2022/12/12 01:59:23;;;;;;;23.80;13.85;;;-0.60;87.80;;;;;;5035231;28;20030;-13
2022/12/12 02:01:51;;;;;;;23.75;13.75;;;-0.60;87.80;;;;;;5035340;28;20566;-14
2022/12/12 02:04:18;;;;;;;22.83;13.38;;;-0.60;87.80;;;;;;5035139;28;20052;-14
2022/12/12 02:06:46;;;;;;;23.35;12.45;;;-0.60;87.80;;;;;;5035235;28;20033;-14
2022/12/12 02:09:14;;;;;;;22.38;12.30;;;-0.70;87.80;;;;;;5034744;28;20054;-14
2022/12/12 02:11:45;;;;;;;22.52;13.35;;;-0.70;87.80;;;;;;5035053;28;20027;-14
2022/12/12 02:14:13;;;;;;;26.23;13.88;;;-0.60;87.90;;;;;;5034875;28;20028;-12
2022/12/12 02:17:12;;;;;;;20.15;12.20;;;-0.70;87.90;;;;;;5034782;28;20051;-13
2022/12/12 02:19:47;;;;;;;19.65;10.70;;;-0.70;88.00;;;;;;5034870;28;20037;-13
2022/12/12 02:22:23;;;;;;;22.23;12.10;;;-0.70;87.90;;;;;;5034604;28;20120;-13
2022/12/12 02:24:52;;;;;;;21.77;11.75;;;-0.80;87.90;;;;;;5034903;28;20416;-14
2022/12/12 02:27:39;;;;;;;23.02;12.40;;;-0.80;87.80;;;;;;5034464;28;20037;-14
2022/12/12 02:30:08;;;;;;;25.80;13.45;;;-0.70;87.90;;;;;;5034703;28;20451;-13
2022/12/12 02:32:49;;;;;;;19.92;12.55;;;-0.80;87.90;;;;;;5034430;28;20121;-12
2022/12/12 02:35:19;;;;;;;21.70;12.75;;;-0.80;87.90;;;;;;5034785;28;20072;-13
2022/12/12 02:38:06;;;;;;;26.00;13.25;;;-0.80;88.00;;;;;;5034251;28;20029;-12
2022/12/12 02:41:12;;;;;;;22.55;11.32;;;-0.90;87.90;;;;;;5034749;28;20079;-12
2022/12/12 02:43:48;;;;;;;23.42;12.90;;;-0.90;87.90;;;;;;5023439;28;20124;-14
2022/12/12 02:46:28;;;;;;;23.45;11.63;;;-0.90;87.90;;;;;;5034398;28;20478;-14
2022/12/12 02:49:08;;;;;;;24.95;13.75;;;-0.90;87.90;;;;;;5034072;28;20076;-15
2022/12/12 02:51:37;;;;;;;19.85;10.63;;;-1.00;87.90;;;;;;5034435;28;20385;-14
2022/12/12 02:54:04;;;;;;;15.10;8.98;;;-1.00;87.90;;;;;;5034235;28;20025;-13
2022/12/12 02:56:45;;;;;;;15.77;8.68;;;-1.00;87.90;;;;;;5034047;28;20493;-13
2022/12/12 02:59:20;;;;;;;16.92;9.68;;;-1.00;87.90;;;;;;5033679;28;20385;-14
2022/12/12 03:02:10;;;;;;;23.90;12.93;;;-1.00;88.00;;;;;;5033973;28;20057;-14
2022/12/12 03:07:47;;;;;;;23.40;12.75;;;-1.10;88.00;;;;;;5034162;28;20040;-14
2022/12/12 03:10:32;;;;;;;22.08;12.13;;;-1.10;88.10;;;;;;5034144;28;20037;-13
2022/12/12 03:13:24;;;;;;;21.05;12.23;;;-1.10;88.10;;;;;;5033759;28;20030;-14
2022/12/12 03:16:05;;;;;;;20.50;10.75;;;-1.10;88.20;;;;;;5033878;28;20057;-12
2022/12/12 03:18:41;;;;;;;23.60;11.95;;;-1.10;88.20;;;;;;5033711;28;20129;-14
2022/12/12 03:21:34;;;;;;;17.70;10.07;;;-1.10;88.30;;;;;;5033462;28;20029;-14
2022/12/12 03:24:07;;;;;;;20.92;11.85;;;-1.10;88.30;;;;;;5033585;28;20045;-12
2022/12/12 03:26:42;;;;;;;23.23;13.33;;;-1.10;88.30;;;;;;5033830;28;20035;-12
2022/12/12 03:29:13;;;;;;;21.25;11.77;;;-1.10;88.30;;;;;;5033118;28;20040;-13
2022/12/12 03:31:44;;;;;;;22.75;12.35;;;-1.10;88.30;;;;;;5033587;28;20021;-13
2022/12/12 03:34:19;;;;;;;25.08;13.30;;;-1.10;88.20;;;;;;5033794;28;20095;-12
2022/12/12 03:36:53;;;;;;;16.85;10.05;;;-1.20;88.00;;;;;;5033416;28;20021;-13
2022/12/12 03:39:56;;;;;;;20.80;11.55;;;-1.20;88.00;;;;;;5034001;28;20100;-13
2022/12/12 03:42:45;;;;;;;17.55;10.27;;;-1.30;87.90;;;;;;5032943;28;20367;-13
2022/12/12 03:45:22;;;;;;;24.65;13.75;;;-1.30;88.00;;;;;;5032384;28;20056;-13
2022/12/12 03:47:57;;;;;;;25.10;13.30;;;-1.40;88.00;;;;;;5033057;28;20109;-14
2022/12/12 03:50:34;;;;;;;27.42;13.30;;;-1.40;88.10;;;;;;5033286;28;20055;-14
2022/12/12 03:53:14;;;;;;;22.92;12.57;;;-1.40;88.10;;;;;;5033156;28;20048;-13
2022/12/12 03:56:03;;;;;;;24.33;14.05;;;-1.50;88.10;;;;;;5033066;28;20025;-14
2022/12/12 03:58:54;;;;;;;21.80;11.88;;;-1.50;88.20;;;;;;5032882;28;20120;-15
2022/12/12 04:01:23;;;;;;;24.90;12.77;;;-1.50;88.20;;;;;;5032938;28;20393;-13
2022/12/12 04:04:16;;;;;;;21.73;11.93;;;-1.50;88.20;;;;;;5033193;28;20065;-13
2022/12/12 04:06:52;;;;;;;22.45;13.07;;;-1.50;88.30;;;;;;5032750;28;20473;-14
2022/12/12 04:15:00;;;;;;;;;;;-1.40;88.50;;;;;;5033583;28;20087;-13
2022/12/12 04:18:04;;;;;;;17.88;10.15;;;-1.40;88.50;;;;;;5032942;28;19905;-13
2022/12/12 04:24:14;;;;;;;22.30;11.60;;;-1.50;88.30;;;;;;5032991;28;20032;-13
2022/12/12 04:26:40;;;;;;;21.73;10.85;;;-1.50;88.10;;;;;;5032742;28;20037;-13
2022/12/12 04:29:06;;;;;;;18.42;10.13;;;-1.60;88.00;;;;;;5032324;28;20045;-13
2022/12/12 04:31:56;;;;;;;19.02;11.15;;;-1.70;87.90;;;;;;5032379;28;20389;-12
2022/12/12 04:34:34;;;;;;;20.77;11.88;;;-1.70;87.90;;;;;;5032461;28;20037;-14
2022/12/12 04:37:04;;;;;;;21.83;12.25;;;-1.80;87.90;;;;;;5032271;28;20045;-14
2022/12/12 04:39:31;;;;;;;16.92;9.02;;;-1.80;87.90;;;;;;5032781;28;20068;-13
2022/12/12 04:42:00;;;;;;;19.92;11.25;;;-1.90;87.90;;;;;;5032256;28;20381;-13
2022/12/12 04:44:28;;;;;;;20.30;11.23;;;-1.80;88.10;;;;;;5032491;28;20061;-14
2022/12/12 04:46:57;;;;;;;22.58;12.10;;;-1.90;88.10;;;;;;5032264;28;20025;-14
2022/12/12 04:49:27;;;;;;;22.40;12.20;;;-1.90;88.10;;;;;;5032313;28;20037;-14
2022/12/12 04:52:00;;;;;;;19.67;11.25;;;-1.90;88.10;;;;;;5032654;28;20026;-14
2022/12/12 04:54:48;;;;;;;18.17;10.63;;;-1.90;88.10;;;;;;5032697;28;20465;-15
2022/12/12 04:57:24;;;;;;;19.73;10.30;;;-2.00;88.10;;;;;;5032532;28;20079;-14
2022/12/12 04:59:50;;;;;;;21.40;10.93;;;-1.90;88.20;;;;;;5032635;28;20111;-14
2022/12/12 05:02:36;;;;;;;19.35;11.13;;;-1.90;88.20;;;;;;5032071;28;20060;-13
2022/12/12 05:05:25;;;;;;;18.67;11.32;;;-1.90;88.30;;;;;;5032421;28;20038;-14
2022/12/12 05:08:11;;;;;;;28.00;14.60;;;-1.80;88.30;;;;;;5032588;28;20477;-13
2022/12/12 05:10:51;;;;;;;21.67;11.70;;;-1.90;88.30;;;;;;5032271;28;20022;-14
2022/12/12 05:13:23;;;;;;;19.30;10.50;;;-1.90;88.20;;;;;;5032156;28;20536;-15
2022/12/12 05:15:54;;;;;;;23.42;12.15;;;-1.90;88.20;;;;;;5032102;28;20033;-15
2022/12/12 05:18:20;;;;;;;20.52;11.20;;;-1.90;88.10;;;;;;5032340;28;20029;-14
2022/12/12 05:20:46;;;;;;;24.27;11.15;;;-2.00;88.10;;;;;;5032190;28;20033;-14
2022/12/12 05:23:12;;;;;;;21.63;11.88;;;-2.00;88.00;;;;;;5035397;28;20030;-14
2022/12/12 05:25:38;;;;;;;17.67;10.25;;;-2.00;88.00;;;;;;5035780;28;20034;-14
2022/12/12 05:28:04;;;;;;;16.67;9.65;;;-2.00;88.00;;;;;;5035872;28;20108;-15
2022/12/12 05:30:30;;;;;;;16.58;9.30;;;-2.00;88.00;;;;;;5035795;28;20056;-13
2022/12/12 05:32:57;;;;;;;16.55;9.23;;;-2.00;88.00;;;;;;5035430;28;20033;-13
2022/12/12 05:35:23;;;;;;;18.92;9.15;;;-2.00;88.00;;;;;;5035853;28;20060;-14
2022/12/12 05:37:50;;;;;;;15.45;8.45;;;-2.00;87.90;;;;;;5035850;28;20051;-14
2022/12/12 05:40:16;;;;;;;16.35;8.77;;;-2.00;87.70;;;;;;5035734;28;20032;-13
2022/12/12 05:42:42;;;;;;;25.00;11.45;;;-2.00;87.60;;;;;;5035393;28;20076;-14
2022/12/12 05:45:10;;;;;;;20.70;10.93;;;-2.00;87.50;;;;;;5035235;28;20114;-14
2022/12/12 05:47:36;;;;;;;19.90;10.18;;;-2.00;87.50;;;;;;5035663;28;20044;-13
2022/12/12 05:50:03;;;;;;;21.65;11.50;;;-2.10;87.50;;;;;;5035584;28;20110;-14
2022/12/12 05:52:29;;;;;;;24.17;12.57;;;-2.10;87.40;;;;;;5035182;28;20171;-13
2022/12/12 05:54:55;;;;;;;26.67;12.45;;;-2.10;87.50;;;;;;5035005;28;20109;-14
2022/12/12 05:57:21;;;;;;;24.45;12.52;;;-2.20;87.50;;;;;;5035038;28;20037;-14
2022/12/12 05:59:47;;;;;;;23.48;11.48;;;-2.20;87.40;;;;;;5035322;28;20034;-13
2022/12/12 06:02:14;;;;;;;19.83;10.40;;;-2.20;87.50;;;;;;5034829;28;20048;-14
2022/12/12 06:04:40;;;;;;;20.25;9.20;;;-2.20;87.50;;;;;;5035307;28;20029;-14
2022/12/12 06:07:07;;;;;;;19.58;10.95;;;-2.20;87.50;;;;;;5034732;28;20433;-14
2022/12/12 06:09:32;;;;;;;20.40;10.65;;;-2.30;87.40;;;;;;5034941;28;20026;-13
2022/12/12 06:11:58;;;;;;;22.27;11.48;;;-2.30;87.40;;;;;;5035054;28;20032;-13
2022/12/12 06:14:25;;;;;;;17.02;9.23;;;-2.30;87.40;;;;;;5035115;28;20026;-13
2022/12/12 06:16:52;;;;;;;19.65;12.00;;;-2.30;87.40;;;;;;5034597;28;20481;-14
2022/12/12 06:19:18;;;;;;;20.52;10.73;;;-2.30;87.40;;;;;;5034786;28;20470;-13
2022/12/12 06:21:45;;;;;;;21.05;11.65;;;-2.30;87.40;;;;;;5034936;28;20022;-13
2022/12/12 06:24:11;;;;;;;22.90;12.32;;;-2.30;87.40;;;;;;5034752;28;20367;-13
2022/12/12 06:26:36;;;;;;;22.10;11.60;;;-2.30;87.40;;;;;;5034681;28;20036;-13
2022/12/12 06:29:03;;;;;;;22.65;12.45;;;-2.30;87.50;;;;;;5034641;28;20048;-14
2022/12/12 06:31:29;;;;;;;24.05;12.48;;;-2.30;87.40;;;;;;5034736;28;20030;-14
2022/12/12 06:33:55;;;;;;;20.67;10.80;;;-2.20;87.40;;;;;;5034108;28;20452;-14
2022/12/12 06:36:23;;;;;;;22.90;12.10;;;-2.20;87.40;;;;;;5034331;28;20547;-12
2022/12/12 06:38:57;;;;;;;22.20;11.23;;;-2.20;87.40;;;;;;5034435;28;20087;-13
2022/12/12 06:41:25;;;;;;;22.20;10.85;;;-2.20;87.30;;;;;;5034429;28;20029;-13
2022/12/12 06:43:51;;;;;;;23.70;10.70;;;-2.10;87.20;;;;;;5034095;28;20584;-13
2022/12/12 06:46:25;;;;;;;18.75;10.50;;;-2.10;87.10;;;;;;5034363;28;20021;-12
2022/12/12 06:48:52;;;;;;;20.42;10.93;;;-2.10;87.20;;;;;;5033987;28;20112;-13
2022/12/12 06:51:21;;;;;;;18.98;10.30;;;-2.00;87.10;;;;;;5034408;28;20517;-13
2022/12/12 06:53:47;;;;;;;20.00;11.57;;;-2.00;87.10;;;;;;5034050;28;20029;-13
2022/12/12 06:56:17;;;;;;;25.60;13.82;;;-2.00;87.10;;;;;;5034381;28;20029;-13
2022/12/12 06:58:43;;;;;;;27.70;13.93;;;-2.00;87.00;;;;;;5034029;28;20029;-12
2022/12/12 07:01:11;;;;;;;19.75;10.88;;;-2.00;87.00;;;;;;5033788;28;20398;-14
2022/12/12 07:03:37;;;;;;;20.33;9.77;;;-1.90;86.80;;;;;;5034134;28;20048;-13
2022/12/12 07:06:04;;;;;;;25.02;10.63;;;-1.90;86.70;;;;;;5033753;28;20032;-14
2022/12/12 07:08:29;;;;;;;29.83;12.15;;;-1.80;86.70;;;;;;5034053;28;20120;-14
2022/12/12 07:11:01;;;;;;;29.23;12.70;;;-1.70;86.60;;;;;;5033927;28;20079;-14
2022/12/12 07:13:27;;;;;;;28.27;13.65;;;-1.60;86.50;;;;;;5033760;28;20029;-14
2022/12/12 07:15:54;;;;;;;26.73;13.35;;;-1.50;86.30;;;;;;5034119;28;20071;-13
2022/12/12 07:18:20;;;;;;;26.92;12.45;;;-1.50;86.20;;;;;;5033312;28;20034;-14
2022/12/12 07:20:46;;;;;;;26.63;12.82;;;-1.40;86.20;;;;;;5033672;28;20056;-14
2022/12/12 07:23:13;;;;;;;25.15;11.45;;;-1.40;86.10;;;;;;5033807;28;20025;-13
2022/12/12 07:25:41;;;;;;;27.08;12.55;;;-1.30;86.00;;;;;;5033644;28;20026;-13
2022/12/12 07:28:09;;;;;;;35.03;16.98;;;-1.30;85.90;;;;;;5033542;28;20041;-12
2022/12/12 07:30:39;;;;;;;37.33;18.50;;;-1.30;85.80;;;;;;5033284;28;20528;-13
2022/12/12 07:33:06;;;;;;;14.93;9.00;;;-1.30;85.80;;;;;;5033131;28;20053;-13
2022/12/12 07:35:32;;;;;;;14.57;8.05;;;-1.20;85.60;;;;;;5033170;28;20061;-14
2022/12/12 07:37:58;;;;;;;10.80;6.05;;;-1.20;85.40;;;;;;5033773;28;20025;-14
2022/12/12 07:40:24;;;;;;;12.65;6.40;;;-1.10;85.20;;;;;;5033454;28;20022;-12
2022/12/12 07:42:50;;;;;;;10.80;5.55;;;-1.10;85.00;;;;;;5031536;28;20128;-14
2022/12/12 07:45:15;;;;;;;17.95;9.32;;;-1.00;84.90;;;;;;5032427;28;20030;-13
2022/12/12 07:47:42;;;;;;;16.33;9.63;;;-1.00;84.00;;;;;;5033098;28;20026;-13
2022/12/12 07:50:08;;;;;;;11.57;6.40;;;-1.00;84.20;;;;;;5033004;28;20029;-15
2022/12/12 07:52:34;;;;;;;11.88;5.80;;;-0.90;84.40;;;;;;5032867;28;20063;-13
2022/12/12 07:55:01;;;;;;;14.25;7.15;;;-0.90;84.50;;;;;;5033205;28;20037;-14
2022/12/12 07:57:27;;;;;;;10.10;5.57;;;-0.80;84.60;;;;;;5032892;28;20030;-14
2022/12/12 07:59:53;;;;;;;12.95;6.20;;;-0.70;84.60;;;;;;5032870;28;20389;-14
2022/12/12 08:02:19;;;;;;;11.88;6.68;;;-0.70;84.50;;;;;;5032876;28;20037;-14
2022/12/12 08:04:45;;;;;;;14.20;6.68;;;-0.60;84.60;;;;;;5032847;28;20053;-13
2022/12/12 08:07:12;;;;;;;14.95;7.43;;;-0.50;84.30;;;;;;5032661;28;20574;-14
2022/12/12 08:09:39;;;;;;;16.30;8.02;;;-0.40;84.10;;;;;;5032565;28;20203;-14
2022/12/12 08:12:05;;;;;;;13.60;7.07;;;-0.20;83.80;;;;;;5032596;28;20096;-13
2022/12/12 08:14:31;;;;;;;13.55;7.10;;;-0.10;83.70;;;;;;5032610;28;20029;-13
2022/12/12 08:16:57;;;;;;;18.08;7.50;;;0.00;83.50;;;;;;5032274;28;20440;-13
2022/12/12 08:19:23;;;;;;;15.27;6.72;;;0.00;83.50;;;;;;5032606;28;20029;-14
2022/12/12 08:21:50;;;;;;;12.70;6.38;;;0.10;83.40;;;;;;5032677;28;20030;-14
2022/12/12 08:24:16;;;;;;;13.68;6.63;;;0.20;83.30;;;;;;5032410;28;20022;-14
2022/12/12 08:26:43;;;;;;;12.75;7.28;;;0.30;83.40;;;;;;5032817;28;20042;-14
2022/12/12 08:29:10;;;;;;;14.52;7.38;;;0.40;83.30;;;;;;5032335;28;20207;-13
2022/12/12 08:31:38;;;;;;;13.55;6.18;;;0.40;83.30;;;;;;5033196;28;20053;-13
2022/12/12 08:34:04;;;;;;;11.30;6.38;;;0.50;83.20;;;;;;5032768;28;20108;-13
2022/12/12 08:36:31;;;;;;;11.50;6.32;;;0.60;83.20;;;;;;5031262;28;20108;-13
2022/12/12 08:39:01;;;;;;;11.60;7.28;;;0.60;83.20;;;;;;5032078;28;20033;-13
2022/12/12 08:41:27;;;;;;;14.07;8.27;;;0.70;83.20;;;;;;5032290;28;20072;-14
2022/12/12 08:43:53;;;;;;;20.05;9.45;;;0.70;83.20;;;;;;5032547;28;20065;-14
2022/12/12 08:46:20;;;;;;;13.70;6.93;;;0.70;83.20;;;;;;5032461;28;20025;-14
2022/12/12 08:48:47;;;;;;;11.75;6.60;;;0.80;82.90;;;;;;5032633;28;20032;-14
2022/12/12 08:51:14;;;;;;;11.48;5.75;;;0.70;83.10;;;;;;5032053;28;20508;-14
2022/12/12 08:53:44;;;;;;;12.27;6.93;;;0.80;83.10;;;;;;5032318;28;20022;-13
2022/12/12 08:56:10;;;;;;;15.77;9.50;;;0.90;83.30;;;;;;5034111;28;20059;-15
2022/12/12 08:58:36;;;;;;;17.60;9.07;;;1.10;83.30;;;;;;5036251;28;20104;-14
2022/12/12 09:01:02;;;;;;;13.70;7.38;;;1.30;82.70;;;;;;5036011;28;20112;-15
2022/12/12 09:03:28;;;;;;;15.55;7.10;;;1.50;82.90;;;;;;5035844;28;20159;-16
2022/12/12 09:05:54;;;;;;;11.10;6.20;;;1.80;83.10;;;;;;5036130;28;20499;-14
2022/12/12 09:08:20;;;;;;;16.00;7.95;;;1.90;82.80;;;;;;5036064;28;20144;-14
2022/12/12 09:10:49;;;;;;;11.13;5.80;;;2.20;82.30;;;;;;5036401;28;20484;-15
2022/12/12 09:13:15;;;;;;;11.23;5.97;;;2.30;81.10;;;;;;5036273;28;20014;-14
2022/12/12 09:15:40;;;;;;;11.00;6.32;;;2.40;80.60;;;;;;5035766;28;20028;-14
2022/12/12 09:18:06;;;;;;;11.80;6.72;;;2.50;81.00;;;;;;5036001;28;20099;-14
2022/12/12 09:20:32;;;;;;;10.68;5.55;;;2.70;80.50;;;;;;5035564;28;20144;-15
2022/12/12 09:22:58;;;;;;;11.38;6.45;;;2.80;81.50;;;;;;5035805;28;20088;-15
2022/12/12 09:25:24;;;;;;;12.73;6.78;;;2.80;78.80;;;;;;5035980;28;20030;-14
2022/12/12 09:27:50;;;;;;;12.43;6.75;;;2.90;79.50;;;;;;5035973;28;20026;-14
2022/12/12 09:30:16;;;;;;;12.70;6.68;;;3.10;79.90;;;;;;5035547;28;20543;-15
2022/12/12 09:32:43;;;;;;;14.85;6.88;;;3.20;78.50;;;;;;5035542;28;20512;-14
2022/12/12 09:35:10;;;;;;;14.48;8.15;;;3.30;79.10;;;;;;5035486;28;20091;-13
2022/12/12 09:37:36;;;;;;;15.00;8.68;;;3.30;79.60;;;;;;5035699;28;20029;-14
2022/12/12 09:40:03;;;;;;;16.83;8.85;;;3.20;79.70;;;;;;5035430;28;20484;-13
2022/12/12 09:42:31;;;;;;;17.75;9.15;;;3.10;79.20;;;;;;5035604;28;20037;-12
2022/12/12 09:45:04;;;;;;;16.52;9.38;;;3.00;78.50;;;;;;5035353;28;20029;-13
2022/12/12 09:47:49;;;;;;;16.77;9.25;;;3.20;78.80;;;;;;5035060;28;20029;-13
2022/12/12 09:50:31;;;;;;;17.48;9.43;;;3.30;76.30;;;;;;5035288;28;20029;-13
2022/12/12 09:53:00;;;;;;;15.88;8.02;;;3.40;79.20;;;;;;5034976;28;20116;-14
2022/12/12 09:55:49;;;;;;;12.82;7.72;;;3.60;79.80;;;;;;5035849;28;20048;-13
2022/12/12 09:58:29;;;;;;;12.63;7.63;;;3.70;78.40;;;;;;5035341;28;20033;-14
2022/12/12 10:01:30;;;;;;;14.00;8.25;;;3.90;77.60;;;;;;5034550;28;20401;-13
2022/12/12 10:04:19;;;;;;;11.00;6.40;;;4.20;77.90;;;;;;5034736;28;20063;-14
2022/12/12 10:07:05;;;;;;;13.70;7.90;;;4.40;79.50;;;;;;5034576;28;20508;-13
2022/12/12 10:09:51;;;;;;;11.60;7.28;;;4.80;79.50;;;;;;5034998;28;20362;-14
2022/12/12 10:12:19;;;;;;;13.40;7.50;;;5.10;79.10;;;;;;5034996;28;20041;-13
2022/12/12 10:14:51;;;;;;;13.93;7.80;;;5.40;78.60;;;;;;5035036;28;20026;-12
2022/12/12 10:17:40;;;;;;;14.10;7.60;;;5.60;75.30;;;;;;5034914;28;20034;-13
2022/12/12 10:20:25;;;;;;;12.13;7.97;;;5.60;74.80;;;;;;5035175;28;20099;-13
2022/12/12 10:23:01;;;;;;;13.73;6.75;;;5.90;76.30;;;;;;5034667;28;20037;-12
2022/12/12 10:25:53;;;;;;;11.45;6.70;;;6.10;75.20;;;;;;5034595;28;20525;-13
2022/12/12 10:28:23;;;;;;;12.52;7.13;;;6.30;73.00;;;;;;5034302;28;20047;-12
2022/12/12 10:31:22;;;;;;;11.57;6.10;;;6.50;75.10;;;;;;5034112;28;20493;-13
2022/12/12 10:34:10;;;;;;;10.05;5.88;;;6.80;74.40;;;;;;5034281;28;20494;-13
2022/12/12 10:37:01;;;;;;;11.60;6.80;;;7.00;71.30;;;;;;5034560;28;20017;-14
2022/12/12 10:39:38;;;;;;;12.18;6.82;;;7.20;72.70;;;;;;5032975;28;20025;-14
2022/12/12 10:42:26;;;;;;;9.23;5.53;;;7.40;71.10;;;;;;5034211;28;20083;-14
2022/12/12 10:45:12;;;;;;;9.63;5.57;;;7.50;71.80;;;;;;5034086;28;20533;-14
2022/12/12 10:47:38;;;;;;;9.55;5.45;;;7.50;67.30;;;;;;5033856;28;20030;-13
2022/12/12 10:50:18;;;;;;;9.68;5.10;;;7.60;70.90;;;;;;5032747;28;20091;-14
2022/12/12 10:52:44;;;;;;;8.88;5.35;;;7.80;70.50;;;;;;5034029;28;20497;-14
2022/12/12 10:55:19;;;;;;;9.15;5.30;;;8.00;70.00;;;;;;5033744;28;20036;-14
2022/12/12 10:57:45;;;;;;;9.43;5.40;;;8.00;67.80;;;;;;5033794;28;20477;-14
2022/12/12 11:00:28;;;;;;;9.52;5.70;;;8.10;68.80;;;;;;5096914;23;20850;-19
2022/12/12 11:02:57;;;;;;;9.02;5.00;;;8.20;69.20;;;;;;5013346;28;20045;-19
2022/12/12 11:05:33;;;;;;;7.85;4.70;;;8.40;68.00;;;;;;5059763;22;20093;-15
2022/12/12 11:08:05;;;;;;;7.20;4.32;;;8.50;66.70;;;;;;4975060;28;20121;-16
2022/12/12 11:10:33;;;;;;;8.27;4.50;;;8.60;67.80;;;;;;4975159;28;20498;-15
2022/12/12 11:13:12;;;;;;;9.15;4.68;;;8.70;65.50;;;;;;4974760;28;20018;-18
2022/12/12 11:15:38;;;;;;;7.78;4.82;;;8.70;66.50;;;;;;4975172;28;20508;-16
2022/12/12 11:18:05;;;;;;;7.00;4.57;;;8.80;65.30;;;;;;4975105;28;20038;-16
2022/12/12 11:20:31;;;;;;;8.40;4.68;;;8.90;61.40;;;;;;4974044;28;20077;-17
2022/12/12 11:22:57;;;;;;;6.40;3.83;;;8.80;65.20;;;;;;4974985;28;20526;-17
2022/12/12 11:25:31;;;;;;;6.80;3.88;;;8.70;62.20;;;;;;4974626;28;20038;-15
2022/12/12 11:28:01;;;;;;;9.07;4.53;;;8.60;65.20;;;;;;4974907;28;20026;-16
2022/12/12 11:30:36;;;;;;;7.30;4.10;;;8.70;66.90;;;;;;4973517;28;20550;-16
2022/12/12 11:33:06;;;;;;;7.35;4.70;;;8.80;67.10;;;;;;4974342;28;20085;-16
2022/12/12 11:35:37;;;;;;;8.10;4.63;;;8.90;65.10;;;;;;4974863;28;20107;-14
2022/12/12 11:38:19;;;;;;;8.23;4.43;;;8.90;60.40;;;;;;4974468;28;20026;-15
2022/12/12 11:41:07;;;;;;;6.75;4.18;;;8.90;62.50;;;;;;4974413;28;20030;-14
2022/12/12 11:43:48;;;;;;;7.85;4.88;;;8.80;65.00;;;;;;4974642;28;20058;-16
2022/12/12 11:46:14;;;;;;;8.88;4.60;;;8.90;61.10;;;;;;4974614;28;20042;-15
2022/12/12 11:48:43;;;;;;;7.28;4.22;;;9.00;64.80;;;;;;4974894;28;20386;-15
2022/12/12 11:51:09;;;;;;;10.93;6.18;;;9.20;63.40;;;;;;4974193;28;20101;-13
2022/12/12 11:53:42;;;;;;;9.90;6.05;;;9.30;61.50;;;;;;4974650;28;20110;-13
2022/12/12 11:56:26;;;;;;;7.82;4.75;;;9.20;58.90;;;;;;4974338;28;20085;-16
2022/12/12 11:59:03;;;;;;;9.85;5.30;;;9.10;61.90;;;;;;4974017;28;20031;-16
2022/12/12 12:01:58;;;;;;;9.68;4.55;;;9.00;59.60;;;;;;4974503;28;20027;-18
2022/12/12 12:04:42;;;;;;;9.00;5.25;;;9.00;61.30;;;;;;4974116;28;20114;-16
2022/12/12 12:07:31;;;;;;;8.80;5.30;;;8.80;59.60;;;;;;4973629;28;20058;-19
2022/12/12 12:10:06;;;;;;;8.57;5.75;;;8.80;62.80;;;;;;4974524;28;20093;-15
2022/12/12 12:13:08;;;;;;;7.22;4.70;;;8.90;63.40;;;;;;4974024;28;20086;-16
2022/12/12 12:15:43;;;;;;;7.25;4.22;;;9.20;63.10;;;;;;4980583;28;20483;-18
2022/12/12 12:18:27;;;;;;;6.78;4.10;;;9.40;63.50;;;;;;4974251;28;20058;-16
2022/12/12 12:21:21;;;;;;;;;;;9.40;58.00;;;;;;4972904;28;20033;-15
2022/12/12 12:23:50;;;;;;;7.20;4.40;;;9.30;59.90;;;;;;4974143;28;19910;-14
2022/12/12 12:26:54;;;;;;;8.25;4.60;;;9.40;59.90;;;;;;4973857;28;20546;-15
2022/12/12 12:29:39;;;;;;;;;;;9.40;61.30;;;;;;4972631;28;20082;-14
2022/12/12 12:32:13;;;;;;;6.35;4.45;;;9.50;61.20;;;;;;4977744;28;19906;-15
2022/12/12 12:35:06;;;;;;;8.65;5.10;;;9.70;61.80;;;;;;4978497;28;20026;-15
2022/12/12 12:37:58;;;;;;;6.82;4.18;;;9.70;55.90;;;;;;4977911;28;20035;-16
2022/12/12 12:40:47;;;;;;;7.47;4.60;;;9.50;59.20;;;;;;4977809;28;20033;-15
2022/12/12 12:43:20;;;;;;;6.32;4.28;;;9.40;61.60;;;;;;4978266;28;20062;-13
2022/12/12 12:45:51;;;;;;;8.15;4.63;;;9.30;60.30;;;;;;4977815;28;20037;-16
2022/12/12 12:48:20;;;;;;;9.75;5.30;;;9.30;60.30;;;;;;4977755;28;20470;-15
2022/12/12 12:51:00;;;;;;;9.57;4.97;;;9.50;61.70;;;;;;4977599;28;20074;-15
2022/12/12 12:53:36;;;;;;;7.78;4.85;;;9.60;60.80;;;;;;4977716;28;20031;-15
2022/12/12 12:56:28;;;;;;;7.97;4.50;;;9.90;62.40;;;;;;4977611;28;20062;-16
2022/12/12 12:59:03;;;;;;;6.60;4.25;;;10.00;59.70;;;;;;4977245;28;20047;-16
2022/12/12 13:01:40;;;;;;;6.72;4.57;;;10.30;61.80;;;;;;4978128;28;20382;-15
2022/12/12 13:05:02;;;;;;;8.68;4.90;;;10.30;57.10;;;;;;4977360;28;20486;-11
2022/12/12 13:07:50;;;;;;;7.95;4.18;;;10.40;59.60;;;;;;4994831;28;20073;-16
2022/12/12 13:10:16;;;;;;;7.63;4.70;;;10.60;60.90;;;;;;4995414;28;20363;-15
2022/12/12 13:12:53;;;;;;;7.32;4.45;;;10.70;59.10;;;;;;4994669;28;20030;-15
2022/12/12 13:15:27;;;;;;;7.57;4.57;;;10.90;58.40;;;;;;4994680;28;20045;-14
2022/12/12 13:18:01;;;;;;;6.97;4.13;;;10.80;55.80;;;;;;4994651;28;20031;-16